Trans Friendship I — VRFY5 — position and weather

sailwx.info

Track history (hours):
 
Tides and Currents Weather Stations Pressure Air Temp Water Temp Dewpoint Dewpoint Depression Visibility Wind Speed Wind Dir Waves Ship Positions

Trans Friendship I

Last reported at 2018-Jan-10 18:35 UTC. Time now 2018-Jan-23 10:10 UTC.
Position N 01°14' E 103°60'.
Warning: this ship's position is 12 days out of date.

Length 178 m; draft 6.2 m.

Type: Cargo ship. MMSI: 477851700.

Date/timePositionNaut miles runAvg speedWind from/ knotsBaromVisibWave heightAir tempDewpointWater temp
2018-Jan-10 18:35N 01°14' E 103°60'210.0
2018-Jan-10 18:24N 01°14' E 103°58'3 6.8
2018-Jan-10 17:58N 01°15' E 103°55'2 1.1
2018-Jan-10 16:08N 01°16' E 103°53'0 0.0
2018-Jan-10 15:47N 01°16' E 103°53'0 0.0
2018-Jan-10 15:26N 01°16' E 103°53'0 0.1
2018-Jan-10 14:20N 01°16' E 103°54'0 0.0
2018-Jan-10 13:32N 01°16' E 103°54'0 0.0
2018-Jan-10 13:17N 01°16' E 103°54'0 0.0
2018-Jan-10 12:47N 01°16' E 103°54'0 0.0
2018-Jan-10 12:26N 01°16' E 103°54'0 0.1
2018-Jan-10 11:41N 01°16' E 103°53'0 0.0
2018-Jan-10 11:20N 01°16' E 103°53'0 0.1
2018-Jan-10 10:42N 01°16' E 103°53'0 1.5
2018-Jan-10 10:31N 01°16' E 103°53'2 3.7
2018-Jan-10 09:57N 01°14' E 103°55'3 6.7
2018-Jan-10 09:28N 01°15' E 103°57'4 6.6
2018-Jan-10 08:56N 01°16' E 104°01'  
Track history (hours):
 
Tides and Currents Weather Stations Pressure Air Temp Water Temp Dewpoint Dewpoint Depression Visibility Wind Speed Wind Dir Waves Ship Positions

Trans Friendship I

Last reported at 2018-Jan-10 18:35 UTC. Time now 2018-Jan-23 10:10 UTC.
Position N 01°14' E 103°60'.
Warning: this ship's position is 12 days out of date.

Length 178 m; draft 6.2 m.

Type: Cargo ship. MMSI: 477851700.

Date/timePositionNaut miles runAvg speedWind from/ knotsBaromVisibWave heightAir tempDewpointWater temp
2018-Jan-10 18:35N 01°14' E 103°60'210.0
2018-Jan-10 18:24N 01°14' E 103°58'3 6.8
2018-Jan-10 17:58N 01°15' E 103°55'2 1.1
2018-Jan-10 16:08N 01°16' E 103°53'0 0.0
2018-Jan-10 15:47N 01°16' E 103°53'0 0.0
2018-Jan-10 15:26N 01°16' E 103°53'0 0.1
2018-Jan-10 14:20N 01°16' E 103°54'0 0.0
2018-Jan-10 13:32N 01°16' E 103°54'0 0.0
2018-Jan-10 13:17N 01°16' E 103°54'0 0.0
2018-Jan-10 12:47N 01°16' E 103°54'0 0.0
2018-Jan-10 12:26N 01°16' E 103°54'0 0.1
2018-Jan-10 11:41N 01°16' E 103°53'0 0.0
2018-Jan-10 11:20N 01°16' E 103°53'0 0.1
2018-Jan-10 10:42N 01°16' E 103°53'0 1.5
2018-Jan-10 10:31N 01°16' E 103°53'2 3.7
2018-Jan-10 09:57N 01°14' E 103°55'3 6.7
2018-Jan-10 09:28N 01°15' E 103°57'4 6.6
2018-Jan-10 08:56N 01°16' E 104°01'  

Dump ship's entire track history